< < Back
Terminal Aerodrome Forecast


Current Version              Previous Versions:   1  2  3  4  5  6  7  8  9  

Terminal Aerodrome Forecast

249
FTUS42 KTAE 311441 AAA
TAFTLH
TAF AMD
KTLH 311441Z 3115/0112 24004KT 5SM BR OVC004
     FM311600 25008G16KT P6SM SCT004
      TEMPO 3118/3122 VRB15KT 3SM TSRA BKN050CB
     FM010000 22006KT P6SM BKN250
     FM010600 23004KT 2SM BR OVC008=



Latest METAR

906
SAUS80 KWBC 010500 RRF
MTRTLH
METAR KTLH 010453Z AUTO 23007KT 10SM CLR 19/17 A3005 RMK AO2 SLP175
T01940172 403000139


USA.gov is the U.S. government's official web portal to all federal, state and local government web resources and services.